createdAt,value
2023-03-14T00:01:38.325Z,5.00
2023-03-14T00:06:41.688Z,4.77
2023-03-14T00:11:45.522Z,4.83
2023-03-14T00:16:48.954Z,4.67
2023-03-14T00:21:52.040Z,4.70
2023-03-14T00:26:55.073Z,5.17
2023-03-14T00:32:00.949Z,4.63
2023-03-14T00:37:04.168Z,4.63
2023-03-14T00:42:07.581Z,4.40
2023-03-14T00:47:11.093Z,4.93
2023-03-14T00:52:14.347Z,5.40
2023-03-14T00:57:17.479Z,5.03
2023-03-14T01:02:20.858Z,4.93
2023-03-14T01:07:24.154Z,3.97
2023-03-14T01:12:29.193Z,4.03
2023-03-14T01:17:32.349Z,4.20
2023-03-14T01:22:35.586Z,3.73
2023-03-14T01:27:38.832Z,4.30
2023-03-14T01:38:17.111Z,4.27
2023-03-14T01:43:22.134Z,3.77
2023-03-14T01:48:27.433Z,4.20
2023-03-14T01:53:31.172Z,4.17
2023-03-14T01:58:38.540Z,3.57
2023-03-14T02:03:51.705Z,3.60
2023-03-14T02:08:55.982Z,3.00
2023-03-14T02:14:00.824Z,3.33
2023-03-14T02:19:05.933Z,2.83
2023-03-14T02:24:19.105Z,3.80
2023-03-14T02:29:22.414Z,3.00
2023-03-14T02:34:27.349Z,3.03
2023-03-14T02:39:40.529Z,2.50
2023-03-14T02:44:56.288Z,2.20
2023-03-14T02:50:04.466Z,1.50
2023-03-14T02:55:07.921Z,1.70
2023-03-14T03:00:11.840Z,1.90
2023-03-14T03:05:15.036Z,0.73
2023-03-14T03:10:18.921Z,1.00
2023-03-14T03:15:22.071Z,0.93
2023-03-14T03:20:32.135Z,1.37
2023-03-14T03:25:35.767Z,1.13
2023-03-14T03:30:43.236Z,1.10
2023-03-14T03:35:49.031Z,1.30
2023-03-14T03:40:57.299Z,1.13
2023-03-14T03:46:03.959Z,1.20
2023-03-14T03:51:07.460Z,1.07
2023-03-14T03:56:11.181Z,1.40
2023-03-14T04:01:16.389Z,0.70
2023-03-14T04:06:19.697Z,0.80
2023-03-14T04:11:22.827Z,1.10
2023-03-14T04:16:27.582Z,1.30
2023-03-14T04:21:30.806Z,2.27
2023-03-14T04:26:33.951Z,1.90
2023-03-14T04:31:37.200Z,2.50
2023-03-14T04:36:40.491Z,2.33
2023-03-14T04:41:43.747Z,2.20
2023-03-14T04:46:48.488Z,2.70
2023-03-14T04:51:54.849Z,2.43
2023-03-14T04:56:57.978Z,2.40
2023-03-14T05:02:01.302Z,3.90
2023-03-14T05:07:04.694Z,3.40
2023-03-14T05:12:08.139Z,6.53
2023-03-14T05:17:11.701Z,5.57
2023-03-14T05:22:14.912Z,3.73
2023-03-14T05:27:18.182Z,4.17
2023-03-14T05:32:21.550Z,4.17
2023-03-14T05:37:24.934Z,3.77
2023-03-14T05:42:28.037Z,4.30
2023-03-14T05:47:31.109Z,3.70
2023-03-14T05:52:34.262Z,3.40
2023-03-14T05:57:37.417Z,3.93
2023-03-14T06:02:40.562Z,3.30
2023-03-14T06:07:43.883Z,3.57
2023-03-14T06:12:46.952Z,3.87
2023-03-14T06:17:50.055Z,3.60
2023-03-14T06:22:53.272Z,4.13
2023-03-14T06:27:56.363Z,4.10
2023-03-14T06:32:59.616Z,4.20
2023-03-14T06:38:03.085Z,3.87
2023-03-14T06:43:06.412Z,4.07
2023-03-14T06:48:09.606Z,3.93
2023-03-14T06:53:12.943Z,4.30
2023-03-14T06:58:16.347Z,4.57
2023-03-14T07:03:19.661Z,4.17
2023-03-14T07:08:22.938Z,4.17
2023-03-14T07:13:26.150Z,4.93
2023-03-14T11:07:26.227Z,1.70
2023-03-14T15:32:23.548Z,2.77
2023-03-14T15:37:27.668Z,0.97
2023-03-14T15:42:30.862Z,1.17
2023-03-14T15:47:35.126Z,0.80
2023-03-14T15:52:38.370Z,1.30
2023-03-14T15:57:44.170Z,1.13
2023-03-14T16:02:47.280Z,1.30
2023-03-14T16:07:51.155Z,1.67
2023-03-14T16:12:55.047Z,3.60
2023-03-14T16:17:58.925Z,4.07
2023-03-14T16:23:03.349Z,3.97
2023-03-14T16:28:11.129Z,4.27
2023-03-14T16:33:16.088Z,4.27
2023-03-14T16:38:19.575Z,3.00
2023-03-14T16:48:53.918Z,4.37
2023-03-14T16:53:57.643Z,3.73
2023-03-14T16:59:00.984Z,5.33
2023-03-14T17:04:05.169Z,2.63
2023-03-14T17:09:08.451Z,2.83
2023-03-14T17:14:12.315Z,5.87
2023-03-14T17:19:17.203Z,3.37
2023-03-14T17:24:21.713Z,1.80
2023-03-14T18:03:00.033Z,3.50
2023-03-14T18:08:07.228Z,3.17
2023-03-14T18:13:17.269Z,4.90
2023-03-14T18:18:22.917Z,2.90
2023-03-14T18:23:28.571Z,2.23
2023-03-14T18:28:33.016Z,2.70
2023-03-14T18:33:43.583Z,3.77
2023-03-14T18:38:50.076Z,5.07
2023-03-14T18:43:58.953Z,6.33
2023-03-14T18:49:07.478Z,5.37
2023-03-14T18:54:13.609Z,6.03
2023-03-14T18:59:21.941Z,6.17
2023-03-14T19:04:27.790Z,7.37
2023-03-14T19:09:31.856Z,7.60
2023-03-14T19:14:38.765Z,7.83
2023-03-14T19:19:43.461Z,10.40
2023-03-14T19:24:48.078Z,7.63
2023-03-14T19:29:55.465Z,7.40
2023-03-14T19:35:04.124Z,9.13
2023-03-14T19:40:11.253Z,9.93
2023-03-14T19:45:20.344Z,7.37
2023-03-14T19:50:26.318Z,7.03
2023-03-14T19:55:35.753Z,5.97
2023-03-14T20:00:42.682Z,5.93
2023-03-14T20:05:47.592Z,5.40
2023-03-14T20:10:52.833Z,6.37
2023-03-14T20:16:00.939Z,5.77
2023-03-14T20:21:16.672Z,7.80
2023-03-14T20:26:22.430Z,6.33
2023-03-14T20:31:28.032Z,6.77
2023-03-14T20:36:35.770Z,5.80
2023-03-14T20:41:51.482Z,1.97
2023-03-14T20:47:08.188Z,0.83
2023-03-14T20:52:19.962Z,0.50
2023-03-14T20:57:26.292Z,0.60
2023-03-14T21:02:35.482Z,0.50
2023-03-14T21:07:42.603Z,0.50
2023-03-14T21:12:48.530Z,0.67
2023-03-14T21:17:56.648Z,0.50
2023-03-14T21:23:12.339Z,0.50
2023-03-14T21:28:18.728Z,0.60
2023-03-14T21:33:27.000Z,0.67
2023-03-14T21:38:32.630Z,0.50
2023-03-14T21:43:57.964Z,0.70
2023-03-14T21:49:13.334Z,0.53
2023-03-14T21:54:29.238Z,0.40
2023-03-14T21:59:40.031Z,0.60
2023-03-14T22:04:44.123Z,0.60
2023-03-14T22:09:47.732Z,0.50
2023-03-14T22:14:54.536Z,0.57
2023-03-14T22:20:01.627Z,0.73
2023-03-14T22:25:06.179Z,0.97
2023-03-14T22:30:10.173Z,0.60
2023-03-14T22:35:13.415Z,0.83
2023-03-14T22:40:16.672Z,0.60
2023-03-14T22:45:20.044Z,0.80
2023-03-14T22:50:23.239Z,0.60
2023-03-14T22:55:26.560Z,0.83
2023-03-14T23:00:30.609Z,0.80
2023-03-14T23:05:34.307Z,0.70
2023-03-14T23:10:37.471Z,1.27
2023-03-14T23:15:42.303Z,1.07
2023-03-14T23:20:48.004Z,1.10
2023-03-14T23:25:53.687Z,0.90
2023-03-14T23:30:58.418Z,1.00
2023-03-14T23:36:04.529Z,1.50
2023-03-14T23:41:08.013Z,1.43
2023-03-14T23:46:11.907Z,1.37
2023-03-14T23:51:16.291Z,2.13
2023-03-14T23:56:19.537Z,2.10
